createdAt,value
2022-08-22T00:00:58.311Z,100394.03
2022-08-22T00:02:47.779Z,100305.09
2022-08-22T00:03:06.628Z,100380.16
2022-08-22T00:03:11.075Z,100391.78
2022-08-22T00:06:21.225Z,100399.59
2022-08-22T00:12:15.019Z,100396.53
2022-08-22T00:18:05.565Z,100383.34
2022-08-22T00:23:13.262Z,100384.25
2022-08-22T00:28:20.763Z,100389.47
2022-08-22T00:33:55.807Z,100392.03
2022-08-22T00:39:13.924Z,100378.94
2022-08-22T00:44:33.991Z,100374.78
2022-08-22T00:50:23.132Z,100377.06
2022-08-22T00:55:49.188Z,100375.72
2022-08-22T01:00:59.906Z,100376.78
2022-08-22T01:06:17.994Z,100374.50
2022-08-22T01:11:30.108Z,100382.41
2022-08-22T01:16:34.552Z,100370.88
2022-08-22T01:21:59.893Z,100367.25
2022-08-22T01:27:22.745Z,100363.56
2022-08-22T01:32:57.053Z,100361.34
2022-08-22T01:38:20.502Z,100358.44
2022-08-22T01:43:51.277Z,100357.53
2022-08-22T01:49:20.442Z,100357.19
2022-08-22T01:54:42.917Z,100352.13
2022-08-22T01:59:48.955Z,100355.09
2022-08-22T02:05:41.547Z,100358.97
2022-08-22T02:11:09.433Z,100361.72
2022-08-22T02:16:38.979Z,100361.94
2022-08-22T02:21:51.067Z,100369.47
2022-08-22T02:27:25.551Z,100362.66
2022-08-22T02:32:41.739Z,100370.50
2022-08-22T02:37:55.804Z,100365.16
2022-08-22T02:43:03.299Z,100358.59
2022-08-22T02:48:16.813Z,100357.22
2022-08-22T02:53:27.460Z,100358.69
2022-08-22T02:58:57.052Z,100354.41
2022-08-22T03:04:27.343Z,100358.72
2022-08-22T03:09:47.316Z,100357.78
2022-08-22T03:15:23.920Z,100356.56
2022-08-22T03:20:51.273Z,100354.25
2022-08-22T03:26:07.417Z,100354.78
2022-08-22T03:31:14.353Z,100364.97
2022-08-22T03:36:15.805Z,100352.19
2022-08-22T03:41:17.250Z,100350.03
2022-08-22T03:46:49.827Z,100344.84
2022-08-22T03:52:09.886Z,100345.72
2022-08-22T03:57:53.982Z,100347.53
2022-08-22T04:03:32.582Z,100351.22
2022-08-22T04:08:44.916Z,100353.41
2022-08-22T04:14:08.052Z,100356.88
2022-08-22T04:19:18.452Z,100356.88
2022-08-22T04:24:25.575Z,100352.72
2022-08-22T04:29:48.058Z,100352.53
2022-08-22T04:35:01.182Z,100355.69
2022-08-22T04:40:11.819Z,100359.72
2022-08-22T04:45:21.144Z,100362.84
2022-08-22T04:50:31.553Z,100362.22
2022-08-22T04:56:14.981Z,100370.38
2022-08-22T05:01:20.213Z,100361.88
2022-08-22T05:06:25.369Z,100358.66
2022-08-22T05:11:28.294Z,100370.50
2022-08-22T05:16:45.779Z,100358.09
2022-08-22T05:21:49.270Z,100360.66
2022-08-22T05:26:55.031Z,100364.75
2022-08-22T05:32:02.004Z,100363.63
2022-08-22T05:37:18.542Z,100368.09
2022-08-22T05:42:32.600Z,100367.31
2022-08-22T05:47:38.337Z,100373.47
2022-08-22T05:52:42.572Z,100372.78
2022-08-22T05:58:09.077Z,100381.69
2022-08-22T06:03:25.606Z,100372.13
2022-08-22T06:08:44.220Z,100367.91
2022-08-22T06:13:58.094Z,100369.50
2022-08-22T06:18:59.865Z,100373.84
2022-08-22T06:24:03.213Z,100373.50
2022-08-22T06:29:06.341Z,100362.38
2022-08-22T06:34:12.506Z,100370.16
2022-08-22T06:39:30.345Z,100377.00
2022-08-22T06:44:40.960Z,100373.06
2022-08-22T06:49:45.141Z,100386.53
2022-08-22T06:54:50.572Z,100389.63
2022-08-22T06:59:54.199Z,100386.28
2022-08-22T07:04:56.119Z,100386.69
2022-08-22T07:09:57.700Z,100377.00
2022-08-22T07:15:09.975Z,100387.06
2022-08-22T07:20:26.109Z,100381.63
2022-08-22T07:25:28.926Z,100367.72
2022-08-22T07:30:46.205Z,100374.34
2022-08-22T07:35:58.089Z,100369.88
2022-08-22T07:41:17.239Z,100359.44
2022-08-22T07:46:54.022Z,100366.13
2022-08-22T07:52:01.563Z,100362.59
2022-08-22T07:57:07.767Z,100355.00
2022-08-22T08:02:14.334Z,100359.09
2022-08-22T08:07:18.190Z,100351.41
2022-08-22T08:12:25.675Z,100358.47
2022-08-22T08:17:32.249Z,100358.19
2022-08-22T08:22:34.447Z,100355.16
2022-08-22T08:27:38.425Z,100353.00
2022-08-22T08:32:42.111Z,100356.97
2022-08-22T08:37:50.247Z,100355.28
2022-08-22T08:43:02.442Z,100353.06
2022-08-22T08:48:31.467Z,100345.16
2022-08-22T08:53:53.149Z,100347.88
2022-08-22T08:59:09.847Z,100336.47
2022-08-22T09:04:17.284Z,100324.00
2022-08-22T09:09:24.958Z,100321.91
2022-08-22T09:14:44.754Z,100318.22
2022-08-22T09:20:18.051Z,100304.22
2022-08-22T09:25:38.559Z,100300.16
2022-08-22T09:31:48.339Z,100303.13
2022-08-22T09:37:08.320Z,100290.22
2022-08-22T09:42:31.049Z,100287.78
2022-08-22T09:47:45.562Z,100273.81
2022-08-22T09:53:06.304Z,100270.63
2022-08-22T09:58:32.417Z,100267.13
2022-08-22T10:03:45.994Z,100265.75
2022-08-22T10:09:08.926Z,100268.25
2022-08-22T10:14:25.741Z,100261.59
2022-08-22T10:19:46.353Z,100247.41
2022-08-22T10:25:13.865Z,100243.84
2022-08-22T10:30:18.035Z,100243.44
2022-08-22T10:35:25.508Z,100232.16
2022-08-22T10:40:41.572Z,100221.94
2022-08-22T10:45:47.803Z,100231.97
2022-08-22T10:51:15.873Z,100226.47
2022-08-22T10:56:38.508Z,100217.19
2022-08-22T11:02:01.824Z,100210.34
2022-08-22T11:07:30.115Z,100217.72
2022-08-22T11:12:36.638Z,100219.31
2022-08-22T11:18:13.181Z,100224.41
2022-08-22T11:23:38.898Z,100219.06
2022-08-22T11:29:13.107Z,100206.44
2022-08-22T11:34:15.672Z,100214.56
2022-08-22T11:39:22.046Z,100199.97
2022-08-22T11:44:34.810Z,100206.59
2022-08-22T11:50:15.481Z,100185.44
2022-08-22T11:55:28.531Z,100200.66
2022-08-22T12:00:47.787Z,100188.63
2022-08-22T12:05:53.772Z,100195.84
2022-08-22T12:11:04.453Z,100187.41
2022-08-22T12:16:18.168Z,100188.22
2022-08-22T12:21:54.448Z,100181.81
2022-08-22T12:27:06.525Z,100184.19
2022-08-22T12:32:43.984Z,100169.06
2022-08-22T12:38:28.390Z,100173.34
2022-08-22T12:43:42.421Z,100174.25
2022-08-22T12:49:00.099Z,100151.44
2022-08-22T12:54:07.582Z,100147.50
2022-08-22T12:59:12.734Z,100142.56
2022-08-22T13:04:32.594Z,100144.22
2022-08-22T13:09:39.453Z,100136.69
2022-08-22T13:14:48.442Z,100132.88
2022-08-22T13:20:10.365Z,100142.56
2022-08-22T13:25:25.831Z,100128.78
2022-08-22T13:30:28.000Z,100131.03
2022-08-22T13:35:51.592Z,100126.31
2022-08-22T13:40:57.062Z,100123.91
2022-08-22T13:46:05.770Z,100114.97
2022-08-22T13:51:19.520Z,100119.63
2022-08-22T13:56:30.291Z,100114.88
2022-08-22T14:01:50.618Z,100107.78
2022-08-22T14:07:18.967Z,100106.72
2022-08-22T14:12:33.523Z,100100.91
2022-08-22T14:17:58.568Z,100095.44
2022-08-22T14:23:06.593Z,100093.06
2022-08-22T14:28:20.901Z,100084.91
2022-08-22T14:33:24.495Z,100089.50
2022-08-22T14:38:31.927Z,100086.94
2022-08-22T14:43:56.802Z,100078.56
2022-08-22T14:49:16.481Z,100072.69
2022-08-22T14:54:22.066Z,100070.16
2022-08-22T14:59:50.275Z,100069.41
2022-08-22T15:04:53.633Z,100069.81
2022-08-22T15:10:07.667Z,100056.06
2022-08-22T15:15:27.872Z,100054.88
2022-08-22T15:20:45.271Z,100053.53
2022-08-22T15:26:13.269Z,100060.19
2022-08-22T15:31:17.981Z,100046.97
2022-08-22T15:36:24.472Z,100041.34
2022-08-22T15:41:38.655Z,100042.16
2022-08-22T15:47:05.657Z,100045.28
2022-08-22T15:52:26.417Z,100037.00
2022-08-22T15:58:03.302Z,100031.44
2022-08-22T16:03:11.479Z,100035.34
2022-08-22T16:08:32.756Z,100038.63
2022-08-22T16:13:41.553Z,100035.22
2022-08-22T16:18:42.988Z,100034.50
2022-08-22T16:23:50.308Z,100033.59
2022-08-22T16:29:06.986Z,100027.44
2022-08-22T16:34:17.561Z,100030.81
2022-08-22T16:39:21.841Z,100034.53
2022-08-22T16:44:29.078Z,100035.44
2022-08-22T16:49:33.081Z,100035.19
2022-08-22T16:54:44.056Z,100033.31
2022-08-22T16:59:57.453Z,100032.97
2022-08-22T17:05:16.652Z,100038.78
2022-08-22T17:10:34.776Z,100034.72
2022-08-22T17:16:01.150Z,100046.22
2022-08-22T17:21:16.130Z,100044.25
2022-08-22T17:26:26.766Z,100042.28
2022-08-22T17:31:49.704Z,100040.44
2022-08-22T17:36:53.998Z,100040.03
2022-08-22T17:42:31.754Z,100043.47
2022-08-22T17:47:54.804Z,100052.19
2022-08-22T17:53:05.479Z,100054.19
2022-08-22T17:58:37.648Z,100054.81
2022-08-22T18:03:49.798Z,100053.88
2022-08-22T18:09:18.148Z,100056.94
2022-08-22T18:14:31.287Z,100062.44
2022-08-22T18:19:59.716Z,100065.09
2022-08-22T18:25:10.520Z,100071.31
2022-08-22T18:30:11.982Z,100070.25
2022-08-22T18:35:22.904Z,100072.00
2022-08-22T18:40:46.857Z,100072.94
2022-08-22T18:45:51.798Z,100077.72
2022-08-22T18:51:15.210Z,100079.97
2022-08-22T18:56:50.850Z,100091.13
2022-08-22T19:02:13.940Z,100094.13
2022-08-22T19:07:32.845Z,100092.50
2022-08-22T19:13:27.076Z,100106.50
2022-08-22T19:18:55.178Z,100110.63
2022-08-22T19:23:56.925Z,100117.31
2022-08-22T19:29:27.619Z,100124.44
2022-08-22T19:34:29.139Z,100129.91
2022-08-22T19:39:39.904Z,100128.88
2022-08-22T19:44:46.420Z,100135.56
2022-08-22T19:49:50.750Z,100143.19
2022-08-22T19:55:14.319Z,100137.91
2022-08-22T20:00:20.754Z,100140.69
2022-08-22T20:05:56.570Z,100144.06
2022-08-22T20:11:18.582Z,100145.50
2022-08-22T20:16:43.670Z,100144.75
2022-08-22T20:21:53.890Z,100145.19
2022-08-22T20:27:13.230Z,100152.72
2022-08-22T20:32:18.234Z,100153.63
2022-08-22T20:38:02.849Z,100153.09
2022-08-22T20:42:49.680Z,100149.88
2022-08-22T20:47:51.662Z,100150.66
2022-08-22T20:53:11.506Z,100147.22
2022-08-22T20:58:28.268Z,100142.28
2022-08-22T21:03:29.730Z,100153.88
2022-08-22T21:08:31.328Z,100151.44
2022-08-22T21:13:37.105Z,100150.88
2022-08-22T21:18:41.433Z,100152.34
2022-08-22T21:23:50.641Z,100163.94
2022-08-22T21:29:03.279Z,100157.75
2022-08-22T21:34:04.971Z,100166.63
2022-08-22T21:39:16.193Z,100169.50
2022-08-22T21:44:37.110Z,100169.25
2022-08-22T21:50:06.502Z,100175.44
2022-08-22T21:55:16.497Z,100173.13
2022-08-22T22:00:39.938Z,100176.03
2022-08-22T22:05:52.227Z,100178.50
2022-08-22T22:10:56.507Z,100189.25
2022-08-22T22:15:58.139Z,100196.56
2022-08-22T22:21:00.358Z,100201.19
2022-08-22T22:26:04.348Z,100210.19
2022-08-22T22:31:06.851Z,100210.81
2022-08-22T22:36:25.302Z,100221.56
2022-08-22T22:41:26.803Z,100224.06
2022-08-22T22:46:28.834Z,100217.53
2022-08-22T22:51:30.402Z,100227.09
2022-08-22T22:56:31.935Z,100224.84
2022-08-22T23:01:33.610Z,100231.31
2022-08-22T23:06:35.180Z,100226.44
2022-08-22T23:11:36.713Z,100228.56
2022-08-22T23:16:40.155Z,100228.97
2022-08-22T23:21:42.985Z,100233.47
2022-08-22T23:26:44.881Z,100241.72
2022-08-22T23:31:58.562Z,100238.91
2022-08-22T23:37:05.846Z,100240.66
2022-08-22T23:42:09.170Z,100246.94
2022-08-22T23:47:11.277Z,100245.00
2022-08-22T23:52:13.460Z,100242.97
2022-08-22T23:57:14.976Z,100254.88
